sensor_id;sensor_type;location;lat;lon;timestamp;pressure;altitude;pressure_sealevel;temperature;humidity
73453;BME280;61687;56.232;43.854;2024-02-28T00:01:51;102397.22;;;-5.19;50.89
73453;BME280;61687;56.232;43.854;2024-02-28T00:04:17;102391.84;;;-5.12;50.68
73453;BME280;61687;56.232;43.854;2024-02-28T00:06:44;102400.88;;;-5.06;50.62
73453;BME280;61687;56.232;43.854;2024-02-28T00:09:12;102400.28;;;-5.08;50.65
73453;BME280;61687;56.232;43.854;2024-02-28T00:11:44;102392.69;;;-5.11;50.59
73453;BME280;61687;56.232;43.854;2024-02-28T00:14:11;102390.59;;;-5.09;50.85
73453;BME280;61687;56.232;43.854;2024-02-28T00:16:41;102389.59;;;-5.15;51.05
73453;BME280;61687;56.232;43.854;2024-02-28T00:19:07;102386.72;;;-5.13;50.87
73453;BME280;61687;56.232;43.854;2024-02-28T00:21:33;102387.16;;;-5.17;50.76
73453;BME280;61687;56.232;43.854;2024-02-28T00:23:59;102384.69;;;-5.25;50.92
73453;BME280;61687;56.232;43.854;2024-02-28T00:26:25;102383.28;;;-5.34;51.07
73453;BME280;61687;56.232;43.854;2024-02-28T00:28:51;102384.91;;;-5.33;50.96
73453;BME280;61687;56.232;43.854;2024-02-28T00:31:16;102386.78;;;-5.40;51.18
73453;BME280;61687;56.232;43.854;2024-02-28T00:33:42;102386.38;;;-5.37;50.99
73453;BME280;61687;56.232;43.854;2024-02-28T00:36:08;102384.91;;;-5.33;50.99
73453;BME280;61687;56.232;43.854;2024-02-28T00:38:34;102388.38;;;-5.33;50.75
73453;BME280;61687;56.232;43.854;2024-02-28T00:41:00;102385.53;;;-5.31;50.77
73453;BME280;61687;56.232;43.854;2024-02-28T00:43:25;102393.53;;;-5.31;50.72
73453;BME280;61687;56.232;43.854;2024-02-28T00:45:51;102396.22;;;-5.31;50.67
73453;BME280;61687;56.232;43.854;2024-02-28T00:48:17;102396.03;;;-5.36;50.73
73453;BME280;61687;56.232;43.854;2024-02-28T00:50:43;102393.34;;;-5.36;50.87
73453;BME280;61687;56.232;43.854;2024-02-28T00:53:09;102391.69;;;-5.37;50.96
73453;BME280;61687;56.232;43.854;2024-02-28T00:55:35;102389.66;;;-5.42;50.76
73453;BME280;61687;56.232;43.854;2024-02-28T00:58:01;102387.78;;;-5.35;50.53
73453;BME280;61687;56.232;43.854;2024-02-28T01:00:26;102395.59;;;-5.33;50.51
73453;BME280;61687;56.232;43.854;2024-02-28T01:02:52;102395.38;;;-5.32;50.54
73453;BME280;61687;56.232;43.854;2024-02-28T01:05:18;102398.03;;;-5.32;50.64
73453;BME280;61687;56.232;43.854;2024-02-28T01:07:44;102404.22;;;-5.31;50.36
73453;BME280;61687;56.232;43.854;2024-02-28T01:10:10;102403.44;;;-5.38;50.43
73453;BME280;61687;56.232;43.854;2024-02-28T01:12:36;102405.69;;;-5.49;50.68
73453;BME280;61687;56.232;43.854;2024-02-28T01:15:03;102401.97;;;-5.54;50.92
73453;BME280;61687;56.232;43.854;2024-02-28T01:17:29;102399.94;;;-5.59;50.93
73453;BME280;61687;56.232;43.854;2024-02-28T01:19:57;102402.81;;;-5.61;51.03
73453;BME280;61687;56.232;43.854;2024-02-28T01:22:22;102407.53;;;-5.56;50.94
73453;BME280;61687;56.232;43.854;2024-02-28T01:24:48;102401.59;;;-5.58;50.90
73453;BME280;61687;56.232;43.854;2024-02-28T01:27:14;102407.53;;;-5.56;50.77
73453;BME280;61687;56.232;43.854;2024-02-28T01:29:40;102400.34;;;-5.55;50.77
73453;BME280;61687;56.232;43.854;2024-02-28T01:32:06;102397.06;;;-5.57;50.65
73453;BME280;61687;56.232;43.854;2024-02-28T01:34:31;102397.47;;;-5.54;50.60
73453;BME280;61687;56.232;43.854;2024-02-28T01:36:57;102390.28;;;-5.60;50.68
73453;BME280;61687;56.232;43.854;2024-02-28T01:39:23;102387.81;;;-5.62;50.50
73453;BME280;61687;56.232;43.854;2024-02-28T01:41:55;102388.41;;;-5.66;50.59
73453;BME280;61687;56.232;43.854;2024-02-28T01:44:21;102386.78;;;-5.67;50.84
73453;BME280;61687;56.232;43.854;2024-02-28T01:46:47;102393.75;;;-5.66;50.81
73453;BME280;61687;56.232;43.854;2024-02-28T01:49:13;102386.38;;;-5.71;50.75
73453;BME280;61687;56.232;43.854;2024-02-28T01:51:41;102380.63;;;-5.75;51.03
73453;BME280;61687;56.232;43.854;2024-02-28T01:54:07;102388.41;;;-5.73;50.93
73453;BME280;61687;56.232;43.854;2024-02-28T01:56:33;102386.78;;;-5.74;50.98
73453;BME280;61687;56.232;43.854;2024-02-28T01:59:00;102376.75;;;-5.72;50.83
73453;BME280;61687;56.232;43.854;2024-02-28T02:01:27;102382.47;;;-5.75;51.04
73453;BME280;61687;56.232;43.854;2024-02-28T02:03:54;102379.00;;;-5.76;50.97
73453;BME280;61687;56.232;43.854;2024-02-28T02:06:20;102374.06;;;-5.79;50.97
73453;BME280;61687;56.232;43.854;2024-02-28T02:08:46;102380.22;;;-5.78;51.22
73453;BME280;61687;56.232;43.854;2024-02-28T02:11:14;102373.84;;;-5.84;51.13
73453;BME280;61687;56.232;43.854;2024-02-28T02:13:50;102383.72;;;-5.84;51.13
73453;BME280;61687;56.232;43.854;2024-02-28T02:16:16;102383.91;;;-5.86;50.87
73453;BME280;61687;56.232;43.854;2024-02-28T02:18:42;102368.91;;;-5.87;50.90
73453;BME280;61687;56.232;43.854;2024-02-28T02:21:08;102370.34;;;-5.91;50.90
73453;BME280;61687;56.232;43.854;2024-02-28T02:23:37;102370.56;;;-5.93;50.97
73453;BME280;61687;56.232;43.854;2024-02-28T02:26:07;102365.44;;;-5.94;51.00
73453;BME280;61687;56.232;43.854;2024-02-28T02:28:33;102362.56;;;-5.93;51.15
73453;BME280;61687;56.232;43.854;2024-02-28T02:30:58;102365.44;;;-5.94;51.11
73453;BME280;61687;56.232;43.854;2024-02-28T02:33:24;102368.72;;;-5.92;51.20
73453;BME280;61687;56.232;43.854;2024-02-28T02:35:52;102365.00;;;-5.91;50.78
73453;BME280;61687;56.232;43.854;2024-02-28T02:38:18;102365.00;;;-5.91;50.76
73453;BME280;61687;56.232;43.854;2024-02-28T02:40:47;102361.72;;;-5.93;50.91
73453;BME280;61687;56.232;43.854;2024-02-28T02:43:14;102359.25;;;-5.95;51.10
73453;BME280;61687;56.232;43.854;2024-02-28T02:45:40;102360.09;;;-5.94;51.05
73453;BME280;61687;56.232;43.854;2024-02-28T02:48:05;102354.31;;;-5.98;51.08
73453;BME280;61687;56.232;43.854;2024-02-28T02:50:31;102365.84;;;-5.97;50.88
73453;BME280;61687;56.232;43.854;2024-02-28T02:52:57;102355.97;;;-5.97;50.94
73453;BME280;61687;56.232;43.854;2024-02-28T02:55:23;102349.22;;;-5.99;50.86
73453;BME280;61687;56.232;43.854;2024-02-28T02:57:48;102352.91;;;-6.00;51.03
73453;BME280;61687;56.232;43.854;2024-02-28T03:00:14;102350.47;;;-6.02;50.97
73453;BME280;61687;56.232;43.854;2024-02-28T03:02:40;102352.31;;;-6.02;51.06
73453;BME280;61687;56.232;43.854;2024-02-28T03:05:06;102341.66;;;-6.02;50.87
73453;BME280;61687;56.232;43.854;2024-02-28T03:07:32;102343.69;;;-6.05;50.75
73453;BME280;61687;56.232;43.854;2024-02-28T03:09:58;102344.69;;;-6.06;50.96
73453;BME280;61687;56.232;43.854;2024-02-28T03:12:24;102350.69;;;-6.04;50.85
73453;BME280;61687;56.232;43.854;2024-02-28T03:14:50;102341.41;;;-6.01;50.53
73453;BME280;61687;56.232;43.854;2024-02-28T03:17:16;102341.84;;;-6.04;50.53
73453;BME280;61687;56.232;43.854;2024-02-28T03:19:42;102344.50;;;-6.04;50.49
73453;BME280;61687;56.232;43.854;2024-02-28T03:22:08;102339.56;;;-6.14;50.73
73453;BME280;61687;56.232;43.854;2024-02-28T03:24:33;102339.38;;;-6.12;50.81
73453;BME280;61687;56.232;43.854;2024-02-28T03:27:02;102328.09;;;-6.14;50.69
73453;BME280;61687;56.232;43.854;2024-02-28T03:29:29;102331.75;;;-6.15;50.73
73453;BME280;61687;56.232;43.854;2024-02-28T03:31:55;102335.66;;;-6.18;50.68
73453;BME280;61687;56.232;43.854;2024-02-28T03:34:21;102324.78;;;-6.23;51.01
73453;BME280;61687;56.232;43.854;2024-02-28T03:36:46;102334.22;;;-6.27;51.03
73453;BME280;61687;56.232;43.854;2024-02-28T03:39:12;102330.13;;;-6.23;50.90
73453;BME280;61687;56.232;43.854;2024-02-28T03:41:38;102326.44;;;-6.22;50.57
73453;BME280;61687;56.232;43.854;2024-02-28T03:44:05;102326.03;;;-6.19;50.43
73453;BME280;61687;56.232;43.854;2024-02-28T03:46:31;102329.72;;;-6.20;50.48
73453;BME280;61687;56.232;43.854;2024-02-28T03:48:57;102326.63;;;-6.17;50.17
73453;BME280;61687;56.232;43.854;2024-02-28T03:51:22;102320.28;;;-6.16;50.00
73453;BME280;61687;56.232;43.854;2024-02-28T03:53:48;102320.69;;;-6.12;49.83
73453;BME280;61687;56.232;43.854;2024-02-28T03:56:24;102323.56;;;-6.07;49.75
73453;BME280;61687;56.232;43.854;2024-02-28T03:58:51;102321.69;;;-6.07;49.75
73453;BME280;61687;56.232;43.854;2024-02-28T04:01:17;102322.97;;;-6.02;49.80
73453;BME280;61687;56.232;43.854;2024-02-28T04:03:43;102324.34;;;-6.00;49.65
73453;BME280;61687;56.232;43.854;2024-02-28T04:06:09;102312.63;;;-5.99;49.56
73453;BME280;61687;56.232;43.854;2024-02-28T04:08:35;102321.88;;;-5.95;49.42
73453;BME280;61687;56.232;43.854;2024-02-28T04:11:01;102308.34;;;-5.93;49.56
73453;BME280;61687;56.232;43.854;2024-02-28T04:13:27;102307.91;;;-5.90;49.20
73453;BME280;61687;56.232;43.854;2024-02-28T04:15:53;102312.84;;;-5.87;49.28
73453;BME280;61687;56.232;43.854;2024-02-28T04:18:19;102306.06;;;-5.83;49.11
73453;BME280;61687;56.232;43.854;2024-02-28T04:20:44;102307.72;;;-5.82;49.07
73453;BME280;61687;56.232;43.854;2024-02-28T04:23:10;102315.31;;;-5.79;49.31
73453;BME280;61687;56.232;43.854;2024-02-28T04:25:36;102314.66;;;-5.74;49.08
73453;BME280;61687;56.232;43.854;2024-02-28T04:28:06;102328.03;;;-5.74;49.46
73453;BME280;61687;56.232;43.854;2024-02-28T04:30:32;102326.38;;;-5.68;49.10
73453;BME280;61687;56.232;43.854;2024-02-28T04:32:58;102324.75;;;-5.69;49.41
73453;BME280;61687;56.232;43.854;2024-02-28T04:35:24;102333.38;;;-5.67;49.57
73453;BME280;61687;56.232;43.854;2024-02-28T04:37:50;102321.66;;;-5.60;49.30
73453;BME280;61687;56.232;43.854;2024-02-28T04:40:16;102316.91;;;-5.51;49.17
73453;BME280;61687;56.232;43.854;2024-02-28T04:42:43;102316.47;;;-5.41;48.71
73453;BME280;61687;56.232;43.854;2024-02-28T04:45:09;102325.94;;;-5.38;48.82
73453;BME280;61687;56.232;43.854;2024-02-28T04:47:36;102321.19;;;-5.36;48.66
73453;BME280;61687;56.232;43.854;2024-02-28T04:50:03;102326.72;;;-5.31;48.60
73453;BME280;61687;56.232;43.854;2024-02-28T04:52:33;102320.75;;;-5.26;48.75
73453;BME280;61687;56.232;43.854;2024-02-28T04:54:59;102329.56;;;-5.19;48.38
73453;BME280;61687;56.232;43.854;2024-02-28T04:57:25;102323.00;;;-5.17;48.44
73453;BME280;61687;56.232;43.854;2024-02-28T04:59:51;102334.91;;;-5.12;48.65
73453;BME280;61687;56.232;43.854;2024-02-28T05:02:17;102323.78;;;-5.09;48.39
73453;BME280;61687;56.232;43.854;2024-02-28T05:04:43;102321.50;;;-5.06;48.61
73453;BME280;61687;56.232;43.854;2024-02-28T05:07:09;102311.00;;;-5.00;48.56
73453;BME280;61687;56.232;43.854;2024-02-28T05:09:35;102301.47;;;-4.90;48.24
73453;BME280;61687;56.232;43.854;2024-02-28T05:12:01;102299.63;;;-4.89;48.32
73453;BME280;61687;56.232;43.854;2024-02-28T05:14:27;102299.63;;;-4.89;48.52
73453;BME280;61687;56.232;43.854;2024-02-28T05:16:53;102293.81;;;-4.79;48.84
73453;BME280;61687;56.232;43.854;2024-02-28T05:19:19;102293.13;;;-4.68;48.46
73453;BME280;61687;56.232;43.854;2024-02-28T05:21:45;102290.03;;;-4.65;47.83
73453;BME280;61687;56.232;43.854;2024-02-28T05:24:11;102294.94;;;-4.62;48.29
73453;BME280;61687;56.232;43.854;2024-02-28T05:26:38;102286.91;;;-4.62;48.58
73453;BME280;61687;56.232;43.854;2024-02-28T05:29:04;102291.78;;;-4.52;48.05
73453;BME280;61687;56.232;43.854;2024-02-28T05:31:31;102292.78;;;-4.46;48.09
73453;BME280;61687;56.232;43.854;2024-02-28T05:33:58;102297.28;;;-4.40;47.85
73453;BME280;61687;56.232;43.854;2024-02-28T05:36:26;102295.78;;;-4.36;47.92
73453;BME280;61687;56.232;43.854;2024-02-28T05:38:53;102286.31;;;-4.32;47.75
73453;BME280;61687;56.232;43.854;2024-02-28T05:41:19;102291.44;;;-4.30;48.02
73453;BME280;61687;56.232;43.854;2024-02-28T05:43:46;102282.97;;;-4.27;47.92
73453;BME280;61687;56.232;43.854;2024-02-28T05:46:13;102293.19;;;-4.17;47.34
73453;BME280;61687;56.232;43.854;2024-02-28T05:48:41;102278.59;;;-4.21;47.54
73453;BME280;61687;56.232;43.854;2024-02-28T05:51:07;102281.22;;;-4.14;47.54
73453;BME280;61687;56.232;43.854;2024-02-28T05:53:33;102283.50;;;-4.18;47.32
73453;BME280;61687;56.232;43.854;2024-02-28T05:56:02;102275.47;;;-4.18;47.66
73453;BME280;61687;56.232;43.854;2024-02-28T05:58:28;102286.75;;;-4.09;47.27
73453;BME280;61687;56.232;43.854;2024-02-28T06:00:54;102293.53;;;-4.07;47.38
73453;BME280;61687;56.232;43.854;2024-02-28T06:03:20;102298.00;;;-4.00;47.18
73453;BME280;61687;56.232;43.854;2024-02-28T06:05:46;102295.88;;;-3.92;47.18
73453;BME280;61687;56.232;43.854;2024-02-28T06:08:13;102287.94;;;-3.80;47.17
73453;BME280;61687;56.232;43.854;2024-02-28T06:10:38;102293.59;;;-3.69;46.88
73453;BME280;61687;56.232;43.854;2024-02-28T06:13:04;102289.88;;;-3.68;46.89
73453;BME280;61687;56.232;43.854;2024-02-28T06:15:30;102295.53;;;-3.58;46.87
73453;BME280;61687;56.232;43.854;2024-02-28T06:17:57;102280.88;;;-3.55;46.25
73453;BME280;61687;56.232;43.854;2024-02-28T06:20:25;102289.06;;;-3.69;46.91
73453;BME280;61687;56.232;43.854;2024-02-28T06:22:51;102295.09;;;-3.55;46.76
73453;BME280;61687;56.232;43.854;2024-02-28T06:25:17;102283.66;;;-3.43;46.18
73453;BME280;61687;56.232;43.854;2024-02-28T06:27:48;102282.75;;;-3.37;46.28
73453;BME280;61687;56.232;43.854;2024-02-28T06:30:15;102276.47;;;-3.31;46.17
73453;BME280;61687;56.232;43.854;2024-02-28T06:32:42;102271.56;;;-3.34;45.95
73453;BME280;61687;56.232;43.854;2024-02-28T06:35:08;102275.53;;;-3.37;46.37
73453;BME280;61687;56.232;43.854;2024-02-28T06:37:35;102275.16;;;-3.22;46.42
73453;BME280;61687;56.232;43.854;2024-02-28T06:40:02;102274.03;;;-3.14;46.52
73453;BME280;61687;56.232;43.854;2024-02-28T06:42:30;102274.16;;;-3.09;45.84
73453;BME280;61687;56.232;43.854;2024-02-28T06:44:55;102268.19;;;-3.11;46.22
73453;BME280;61687;56.232;43.854;2024-02-28T06:47:21;102279.91;;;-3.05;45.88
73453;BME280;61687;56.232;43.854;2024-02-28T06:49:47;102268.16;;;-2.92;46.19
73453;BME280;61687;56.232;43.854;2024-02-28T06:52:14;102269.38;;;-2.76;45.89
73453;BME280;61687;56.232;43.854;2024-02-28T06:54:40;102275.00;;;-2.66;45.57
73453;BME280;61687;56.232;43.854;2024-02-28T06:57:05;102269.22;;;-2.63;45.21
73453;BME280;61687;56.232;43.854;2024-02-28T06:59:31;102260.75;;;-2.78;45.02
73453;BME280;61687;56.232;43.854;2024-02-28T07:01:57;102259.91;;;-2.79;45.54
73453;BME280;61687;56.232;43.854;2024-02-28T07:04:23;102253.53;;;-2.66;45.14
73453;BME280;61687;56.232;43.854;2024-02-28T07:06:48;102247.16;;;-2.65;45.35
73453;BME280;61687;56.232;43.854;2024-02-28T07:09:14;102243.03;;;-2.67;45.31
73453;BME280;61687;56.232;43.854;2024-02-28T07:11:40;102254.75;;;-2.62;45.95
73453;BME280;61687;56.232;43.854;2024-02-28T07:14:06;102242.84;;;-2.54;45.02
73453;BME280;61687;56.232;43.854;2024-02-28T07:16:32;102251.94;;;-2.55;45.34
73453;BME280;61687;56.232;43.854;2024-02-28T07:19:02;102249.50;;;-2.45;45.44
73453;BME280;61687;56.232;43.854;2024-02-28T07:21:28;102245.09;;;-2.39;45.03
73453;BME280;61687;56.232;43.854;2024-02-28T07:23:56;102241.81;;;-2.41;44.78
73453;BME280;61687;56.232;43.854;2024-02-28T07:26:21;102234.56;;;-2.40;45.17
73453;BME280;61687;56.232;43.854;2024-02-28T07:28:47;102241.00;;;-2.30;45.29
73453;BME280;61687;56.232;43.854;2024-02-28T07:31:16;102227.69;;;-2.24;45.21
73453;BME280;61687;56.232;43.854;2024-02-28T07:33:42;102221.88;;;-2.09;45.19
73453;BME280;61687;56.232;43.854;2024-02-28T07:36:07;102220.25;;;-1.98;44.71
73453;BME280;61687;56.232;43.854;2024-02-28T07:38:34;102221.03;;;-1.86;45.08
73453;BME280;61687;56.232;43.854;2024-02-28T07:40:59;102218.91;;;-1.72;44.65
73453;BME280;61687;56.232;43.854;2024-02-28T07:43:25;102224.38;;;-1.55;44.65
73453;BME280;61687;56.232;43.854;2024-02-28T07:45:51;102219.06;;;-1.38;44.54
73453;BME280;61687;56.232;43.854;2024-02-28T07:48:17;102215.84;;;-1.23;43.91
73453;BME280;61687;56.232;43.854;2024-02-28T07:50:45;102212.78;;;-1.14;43.83
73453;BME280;61687;56.232;43.854;2024-02-28T07:53:13;102208.06;;;-1.07;43.81
73453;BME280;61687;56.232;43.854;2024-02-28T07:55:38;102203.19;;;-1.10;43.59
73453;BME280;61687;56.232;43.854;2024-02-28T07:58:04;102199.28;;;-1.03;43.95
73453;BME280;61687;56.232;43.854;2024-02-28T08:00:35;102201.06;;;-0.91;43.50
73453;BME280;61687;56.232;43.854;2024-02-28T08:03:00;102198.06;;;-0.95;43.63
73453;BME280;61687;56.232;43.854;2024-02-28T08:05:27;102194.25;;;-0.82;43.46
73453;BME280;61687;56.232;43.854;2024-02-28T08:07:53;102196.13;;;-0.82;43.31
73453;BME280;61687;56.232;43.854;2024-02-28T08:10:19;102189.44;;;-0.80;43.39
73453;BME280;61687;56.232;43.854;2024-02-28T08:12:45;102194.41;;;-0.72;43.44
73453;BME280;61687;56.232;43.854;2024-02-28T08:15:11;102189.28;;;-0.56;43.24
73453;BME280;61687;56.232;43.854;2024-02-28T08:17:37;102195.31;;;-0.49;43.48
73453;BME280;61687;56.232;43.854;2024-02-28T08:20:04;102178.56;;;-0.34;43.04
73453;BME280;61687;56.232;43.854;2024-02-28T08:22:33;102183.72;;;-0.32;42.38
73453;BME280;61687;56.232;43.854;2024-02-28T08:24:59;102191.72;;;-0.37;42.33
73453;BME280;61687;56.232;43.854;2024-02-28T08:27:25;102186.97;;;-0.30;42.91
73453;BME280;61687;56.232;43.854;2024-02-28T08:29:51;102191.72;;;-0.20;42.73
73453;BME280;61687;56.232;43.854;2024-02-28T08:32:17;102185.59;;;-0.16;42.43
73453;BME280;61687;56.232;43.854;2024-02-28T08:34:44;102183.19;;;-0.12;42.87
73453;BME280;61687;56.232;43.854;2024-02-28T08:37:12;102186.78;;;-0.06;42.42
73453;BME280;61687;56.232;43.854;2024-02-28T08:39:38;102189.53;;;-0.01;41.95
73453;BME280;61687;56.232;43.854;2024-02-28T08:42:04;102181.28;;;0.06;42.35
73453;BME280;61687;56.232;43.854;2024-02-28T08:44:30;102179.09;;;0.25;42.27
73453;BME280;61687;56.232;43.854;2024-02-28T08:46:56;102182.59;;;0.48;42.30
73453;BME280;61687;56.232;43.854;2024-02-28T08:49:22;102179.81;;;0.65;41.90
73453;BME280;61687;56.232;43.854;2024-02-28T08:51:48;102180.34;;;0.62;41.91
73453;BME280;61687;56.232;43.854;2024-02-28T08:54:14;102177.59;;;0.56;41.48
73453;BME280;61687;56.232;43.854;2024-02-28T08:56:39;102174.06;;;0.56;41.81
73453;BME280;61687;56.232;43.854;2024-02-28T08:59:05;102171.72;;;0.65;41.49
73453;BME280;61687;56.232;43.854;2024-02-28T09:01:31;102179.31;;;0.68;41.28
73453;BME280;61687;56.232;43.854;2024-02-28T09:04:00;102174.97;;;0.67;41.64
73453;BME280;61687;56.232;43.854;2024-02-28T09:06:25;102176.63;;;0.68;41.66
73453;BME280;61687;56.232;43.854;2024-02-28T09:08:52;102173.88;;;0.63;41.76
73453;BME280;61687;56.232;43.854;2024-02-28T09:11:18;102162.69;;;0.76;42.16
73453;BME280;61687;56.232;43.854;2024-02-28T09:13:44;102152.56;;;0.94;41.52
73453;BME280;61687;56.232;43.854;2024-02-28T09:16:09;102160.66;;;0.94;41.18
73453;BME280;61687;56.232;43.854;2024-02-28T09:18:35;102156.84;;;0.90;41.51
73453;BME280;61687;56.232;43.854;2024-02-28T09:21:01;102145.38;;;1.05;41.84
73453;BME280;61687;56.232;43.854;2024-02-28T09:23:27;102147.66;;;1.18;41.70
73453;BME280;61687;56.232;43.854;2024-02-28T09:25:53;102148.56;;;1.29;41.56
73453;BME280;61687;56.232;43.854;2024-02-28T09:28:18;102136.13;;;1.28;41.16
73453;BME280;61687;56.232;43.854;2024-02-28T09:30:44;102132.63;;;1.27;41.41
73453;BME280;61687;56.232;43.854;2024-02-28T09:33:13;102134.00;;;1.35;40.95
73453;BME280;61687;56.232;43.854;2024-02-28T09:35:38;102138.84;;;1.33;41.44
73453;BME280;61687;56.232;43.854;2024-02-28T09:38:05;102144.56;;;1.37;41.04
73453;BME280;61687;56.232;43.854;2024-02-28T09:40:31;102129.91;;;1.27;41.36
73453;BME280;61687;56.232;43.854;2024-02-28T09:43:03;102128.34;;;1.37;41.33
73453;BME280;61687;56.232;43.854;2024-02-28T09:45:30;102129.72;;;1.39;41.04
73453;BME280;61687;56.232;43.854;2024-02-28T09:47:59;102121.09;;;1.42;41.01
73453;BME280;61687;56.232;43.854;2024-02-28T09:50:26;102120.91;;;1.54;40.92
73453;BME280;61687;56.232;43.854;2024-02-28T09:52:53;102117.72;;;1.68;40.69
73453;BME280;61687;56.232;43.854;2024-02-28T09:55:20;102116.41;;;1.70;40.35
73453;BME280;61687;56.232;43.854;2024-02-28T09:57:47;102112.63;;;1.77;40.18
73453;BME280;61687;56.232;43.854;2024-02-28T10:00:17;102104.06;;;1.95;40.72
73453;BME280;61687;56.232;43.854;2024-02-28T10:02:47;102107.41;;;2.18;39.73
73453;BME280;61687;56.232;43.854;2024-02-28T10:05:14;102106.13;;;2.36;40.21
73453;BME280;61687;56.232;43.854;2024-02-28T10:07:41;102102.41;;;2.79;39.54
73453;BME280;61687;56.232;43.854;2024-02-28T10:10:07;102102.91;;;3.43;39.68
73453;BME280;61687;56.232;43.854;2024-02-28T10:12:40;102104.09;;;3.97;38.06
73453;BME280;61687;56.232;43.854;2024-02-28T10:15:06;102108.88;;;4.21;37.35
73453;BME280;61687;56.232;43.854;2024-02-28T10:17:32;102108.66;;;4.07;36.76
73453;BME280;61687;56.232;43.854;2024-02-28T10:19:58;102100.38;;;3.78;36.90
73453;BME280;61687;56.232;43.854;2024-02-28T10:22:25;102102.56;;;3.76;37.93
73453;BME280;61687;56.232;43.854;2024-02-28T10:24:59;102100.31;;;3.88;37.43
73453;BME280;61687;56.232;43.854;2024-02-28T10:27:25;102107.91;;;3.96;37.44
73453;BME280;61687;56.232;43.854;2024-02-28T10:29:51;102107.34;;;3.99;37.01
73453;BME280;61687;56.232;43.854;2024-02-28T10:32:17;102102.72;;;4.00;36.80
73453;BME280;61687;56.232;43.854;2024-02-28T10:34:44;102092.72;;;3.90;36.91
73453;BME280;61687;56.232;43.854;2024-02-28T10:37:10;102089.97;;;4.00;37.44
73453;BME280;61687;56.232;43.854;2024-02-28T10:39:36;102085.28;;;4.17;36.55
73453;BME280;61687;56.232;43.854;2024-02-28T10:42:04;102085.63;;;4.50;36.73
73453;BME280;61687;56.232;43.854;2024-02-28T10:44:31;102079.13;;;4.85;36.67
73453;BME280;61687;56.232;43.854;2024-02-28T10:47:00;102070.22;;;5.09;36.41
73453;BME280;61687;56.232;43.854;2024-02-28T10:49:27;102072.47;;;5.32;35.75
73453;BME280;61687;56.232;43.854;2024-02-28T10:51:56;102071.88;;;5.35;35.94
73453;BME280;61687;56.232;43.854;2024-02-28T10:54:25;102067.59;;;5.53;36.15
73453;BME280;61687;56.232;43.854;2024-02-28T10:56:54;102065.94;;;6.00;35.48
73453;BME280;61687;56.232;43.854;2024-02-28T10:59:21;102069.91;;;6.33;35.46
73453;BME280;61687;56.232;43.854;2024-02-28T11:01:49;102065.25;;;6.52;34.98
73453;BME280;61687;56.232;43.854;2024-02-28T11:04:16;102065.22;;;6.71;33.91
73453;BME280;61687;56.232;43.854;2024-02-28T11:06:54;102068.56;;;6.30;34.17
73453;BME280;61687;56.232;43.854;2024-02-28T11:09:24;102058.53;;;5.63;34.99
73453;BME280;61687;56.232;43.854;2024-02-28T11:11:54;102058.59;;;5.04;36.03
73453;BME280;61687;56.232;43.854;2024-02-28T11:14:22;102058.44;;;4.90;36.22
73453;BME280;61687;56.232;43.854;2024-02-28T11:17:00;102057.81;;;4.98;36.57
73453;BME280;61687;56.232;43.854;2024-02-28T11:19:28;102061.41;;;5.23;36.18
73453;BME280;61687;56.232;43.854;2024-02-28T11:21:55;102061.38;;;5.52;36.14
73453;BME280;61687;56.232;43.854;2024-02-28T11:24:30;102062.69;;;5.55;35.90
73453;BME280;61687;56.232;43.854;2024-02-28T11:26:56;102066.97;;;5.37;36.20
73453;BME280;61687;56.232;43.854;2024-02-28T11:29:29;102059.44;;;5.28;36.20
73453;BME280;61687;56.232;43.854;2024-02-28T11:31:55;102063.50;;;5.31;36.20
73453;BME280;61687;56.232;43.854;2024-02-28T11:34:21;102062.78;;;5.69;35.52
73453;BME280;61687;56.232;43.854;2024-02-28T11:36:48;102061.88;;;6.03;35.20
73453;BME280;61687;56.232;43.854;2024-02-28T11:39:15;102058.84;;;6.43;34.44
73453;BME280;61687;56.232;43.854;2024-02-28T11:41:41;102053.06;;;6.64;34.47
73453;BME280;61687;56.232;43.854;2024-02-28T11:44:07;102057.94;;;6.67;34.70
73453;BME280;61687;56.232;43.854;2024-02-28T11:46:33;102044.91;;;6.64;34.29
73453;BME280;61687;56.232;43.854;2024-02-28T11:49:01;102038.56;;;6.68;34.40
73453;BME280;61687;56.232;43.854;2024-02-28T11:51:27;102040.66;;;6.91;34.58
73453;BME280;61687;56.232;43.854;2024-02-28T11:53:52;102043.78;;;6.84;34.04
73453;BME280;61687;56.232;43.854;2024-02-28T11:56:19;102039.38;;;6.69;34.87
73453;BME280;61687;56.232;43.854;2024-02-28T11:58:50;102033.72;;;6.65;34.97
73453;BME280;61687;56.232;43.854;2024-02-28T12:01:16;102035.44;;;6.42;35.02
73453;BME280;61687;56.232;43.854;2024-02-28T12:03:45;102035.53;;;6.37;35.48
73453;BME280;61687;56.232;43.854;2024-02-28T12:06:12;102028.16;;;6.18;35.63
73453;BME280;61687;56.232;43.854;2024-02-28T12:08:38;102031.72;;;6.19;35.83
73453;BME280;61687;56.232;43.854;2024-02-28T12:11:07;102024.94;;;6.16;35.60
73453;BME280;61687;56.232;43.854;2024-02-28T12:13:33;102024.72;;;6.12;35.69
73453;BME280;61687;56.232;43.854;2024-02-28T12:16:00;102020.72;;;6.05;36.17
73453;BME280;61687;56.232;43.854;2024-02-28T12:18:27;102020.72;;;6.05;36.43
73453;BME280;61687;56.232;43.854;2024-02-28T12:20:56;102016.94;;;6.06;36.55
73453;BME280;61687;56.232;43.854;2024-02-28T12:23:22;102024.31;;;6.00;37.07
73453;BME280;61687;56.232;43.854;2024-02-28T12:25:48;102010.56;;;5.91;36.61
73453;BME280;61687;56.232;43.854;2024-02-28T12:28:14;102013.78;;;5.74;36.75
73453;BME280;61687;56.232;43.854;2024-02-28T12:30:42;102005.91;;;5.72;37.55
73453;BME280;61687;56.232;43.854;2024-02-28T12:33:08;102000.97;;;5.75;37.80
73453;BME280;61687;56.232;43.854;2024-02-28T12:35:34;102013.81;;;5.69;37.48
73453;BME280;61687;56.232;43.854;2024-02-28T12:38:00;101994.84;;;5.64;37.63
73453;BME280;61687;56.232;43.854;2024-02-28T12:40:26;101994.09;;;5.58;38.18